Time;durP1;ratioP1;P1;durP2;ratioP2;P2;SDS_P1;SDS_P2;PMS_P1;PMS_P2;Temp;Humidity;BMP_temperature;BMP_pressure;BME280_temperature;BME280_humidity;BME280_pressure;Samples;Min_cycle;Max_cycle;Signal;HPM_P1;HPM_P2
2022/11/28 00:02:23;;;;;;;0.30;0.30;;;5.30;99.90;;;;;;5032408;28;20214;-91
2022/11/28 00:04:52;;;;;;;0.20;0.20;;;5.30;99.90;;;;;;5033519;28;20430;-92
2022/11/28 00:07:17;;;;;;;0.30;0.30;;;5.30;99.90;;;;;;5031706;28;20230;-91
2022/11/28 00:09:43;;;;;;;0.30;0.30;;;5.40;99.90;;;;;;5033245;28;20445;-93
2022/11/28 00:12:08;;;;;;;0.30;0.30;;;5.40;99.90;;;;;;5032545;28;20298;-90
2022/11/28 00:14:33;;;;;;;0.30;0.30;;;5.40;99.90;;;;;;5031377;28;20313;-91
2022/11/28 00:16:59;;;;;;;0.30;0.30;;;5.40;99.90;;;;;;5026446;28;20219;-91
2022/11/28 00:19:24;;;;;;;0.30;0.30;;;5.40;99.90;;;;;;5010277;28;20203;-90
2022/11/28 00:21:50;;;;;;;0.27;0.27;;;5.40;99.90;;;;;;5007012;28;20309;-90
2022/11/28 00:24:15;;;;;;;0.20;0.20;;;5.40;99.90;;;;;;5027415;28;20708;-90
2022/11/28 00:26:41;;;;;;;0.27;0.27;;;5.40;99.90;;;;;;5023548;28;20349;-90
2022/11/28 00:29:08;;;;;;;0.30;0.30;;;5.40;99.90;;;;;;5002907;28;20184;-91
2022/11/28 00:31:41;;;;;;;0.33;0.33;;;5.40;99.90;;;;;;5023603;28;20398;-92
2022/11/28 00:34:07;;;;;;;0.30;0.30;;;5.50;99.90;;;;;;5025200;28;20536;-90
2022/11/28 00:36:33;;;;;;;0.30;0.30;;;5.50;99.90;;;;;;5026458;28;20780;-92
2022/11/28 00:38:58;;;;;;;0.30;0.30;;;5.50;99.90;;;;;;5030754;28;20481;-90
2022/11/28 00:41:27;;;;;;;0.37;0.37;;;5.50;99.90;;;;;;5030905;28;20186;-91
2022/11/28 00:43:53;;;;;;;0.30;0.30;;;5.50;99.90;;;;;;5020073;28;20693;-91
2022/11/28 00:46:20;;;;;;;0.30;0.30;;;5.50;99.90;;;;;;5022993;28;20442;-90
2022/11/28 00:48:46;;;;;;;0.23;0.23;;;5.50;99.90;;;;;;5003858;28;20768;-91
2022/11/28 00:51:27;;;;;;;0.20;0.20;;;5.40;99.90;;;;;;5030666;28;20601;-90
2022/11/28 00:53:54;;;;;;;0.30;0.30;;;5.40;99.90;;;;;;5040929;28;20233;-91
2022/11/28 00:56:24;;;;;;;0.20;0.20;;;5.40;99.90;;;;;;5027848;28;20526;-91
2022/11/28 00:58:50;;;;;;;0.23;0.23;;;5.40;99.90;;;;;;5023581;28;20474;-91
2022/11/28 01:01:27;;;;;;;0.30;0.30;;;5.40;99.90;;;;;;5021503;28;20439;-89
2022/11/28 01:03:54;;;;;;;0.30;0.30;;;5.40;99.90;;;;;;5024624;28;20194;-91
2022/11/28 01:06:26;;;;;;;0.30;0.30;;;5.40;99.90;;;;;;5022068;28;20443;-89
2022/11/28 01:08:52;;;;;;;0.30;0.30;;;5.40;99.90;;;;;;5023634;28;20450;-89
2022/11/28 01:11:18;;;;;;;0.30;0.30;;;5.40;99.90;;;;;;5022044;28;21198;-89
2022/11/28 01:13:44;;;;;;;0.30;0.30;;;5.40;99.90;;;;;;5019687;28;20811;-89
2022/11/28 01:16:10;;;;;;;0.30;0.30;;;5.40;99.90;;;;;;5023611;28;20434;-90
2022/11/28 01:18:36;;;;;;;0.33;0.33;;;5.40;99.90;;;;;;5021113;28;20233;-90
2022/11/28 01:21:02;;;;;;;0.30;0.30;;;5.40;99.90;;;;;;5021714;28;20945;-90
2022/11/28 01:23:28;;;;;;;0.30;0.30;;;5.50;99.90;;;;;;5021610;28;20808;-90
2022/11/28 01:25:54;;;;;;;0.20;0.20;;;5.50;99.90;;;;;;5027073;28;20438;-91
2022/11/28 01:28:19;;;;;;;0.30;0.30;;;5.40;99.90;;;;;;5020916;28;20228;-91
2022/11/28 01:30:44;;;;;;;0.30;0.30;;;5.50;99.90;;;;;;5022419;28;20191;-90
2022/11/28 01:33:10;;;;;;;0.30;0.30;;;5.50;99.90;;;;;;5023581;28;20299;-91
2022/11/28 01:35:35;;;;;;;0.30;0.30;;;5.50;99.90;;;;;;5024650;28;20188;-91
2022/11/28 01:38:01;;;;;;;0.30;0.30;;;5.50;99.90;;;;;;5021693;28;20302;-90
2022/11/28 01:40:26;;;;;;;0.30;0.30;;;5.50;99.90;;;;;;5022075;28;20202;-92
2022/11/28 01:42:52;;;;;;;0.30;0.30;;;5.50;99.90;;;;;;5005100;28;20187;-91
2022/11/28 01:45:23;;;;;;;0.30;0.30;;;5.50;99.90;;;;;;5023231;28;20245;-89
2022/11/28 01:47:52;;;;;;;0.30;0.30;;;5.50;99.90;;;;;;5003533;28;21094;-90
2022/11/28 01:50:20;;;;;;;0.23;0.23;;;5.50;99.90;;;;;;5004329;28;20452;-89
2022/11/28 01:52:50;;;;;;;0.30;0.30;;;5.50;99.90;;;;;;5004540;28;20451;-90
2022/11/28 01:55:21;;;;;;;0.30;0.30;;;5.50;99.90;;;;;;5008453;28;20434;-90
2022/11/28 01:57:46;;;;;;;0.30;0.30;;;5.60;99.90;;;;;;5022133;28;20489;-89
2022/11/28 02:00:15;;;;;;;0.30;0.30;;;5.50;99.90;;;;;;5002823;28;20449;-90
2022/11/28 02:02:47;;;;;;;0.30;0.30;;;5.50;99.90;;;;;;5019648;28;20191;-90
2022/11/28 02:05:15;;;;;;;0.20;0.20;;;5.60;99.90;;;;;;4998768;28;20437;-91
2022/11/28 02:07:42;;;;;;;0.20;0.20;;;5.50;99.90;;;;;;5007703;28;20449;-90
2022/11/28 02:10:12;;;;;;;0.23;0.23;;;5.50;99.90;;;;;;5021334;28;20444;-89
2022/11/28 02:13:06;;;;;;;0.30;0.30;;;5.50;99.90;;;;;;5022866;28;20516;-91
2022/11/28 02:15:49;;;;;;;0.37;0.37;;;5.50;99.90;;;;;;5023674;28;20993;-91
2022/11/28 02:18:46;;;;;;;0.30;0.30;;;5.50;99.90;;;;;;5022212;28;20780;-90
2022/11/28 02:21:22;;;;;;;0.30;0.30;;;5.50;99.90;;;;;;5022602;28;20447;-90
2022/11/28 02:24:10;;;;;;;0.30;0.30;;;5.50;99.90;;;;;;5023782;28;20477;-91
2022/11/28 02:27:03;;;;;;;0.30;0.30;;;5.50;99.90;;;;;;5025253;28;20445;-91
2022/11/28 02:29:40;;;;;;;0.30;0.30;;;5.50;99.90;;;;;;5024635;28;20556;-90
2022/11/28 02:32:18;;;;;;;0.20;0.20;;;5.50;99.90;;;;;;5027374;28;20930;-91
2022/11/28 02:35:11;;;;;;;0.23;0.23;;;5.50;99.90;;;;;;5024826;28;20446;-90
2022/11/28 02:37:43;;;;;;;0.23;0.23;;;5.50;99.90;;;;;;5027405;28;20476;-90
2022/11/28 02:40:28;;;;;;;0.20;0.20;;;5.50;99.90;;;;;;5018834;28;20599;-89
2022/11/28 02:42:53;;;;;;;0.30;0.30;;;5.40;99.90;;;;;;5007664;28;20438;-89
2022/11/28 02:45:26;;;;;;;0.30;0.30;;;5.40;99.90;;;;;;5024555;28;20529;-89
2022/11/28 02:48:11;;;;;;;0.30;0.30;;;5.40;99.90;;;;;;5024652;28;20667;-90
2022/11/28 02:51:04;;;;;;;0.30;0.30;;;5.40;99.90;;;;;;5007224;28;20954;-92
2022/11/28 02:53:31;;;;;;;0.23;0.23;;;5.30;99.90;;;;;;5023011;28;20946;-91
2022/11/28 02:55:58;;;;;;;0.30;0.30;;;5.30;99.90;;;;;;5024215;28;21003;-90
2022/11/28 02:58:24;;;;;;;0.20;0.20;;;5.30;99.90;;;;;;5026527;28;20496;-90
2022/11/28 03:00:50;;;;;;;0.30;0.30;;;5.30;99.90;;;;;;5010123;28;20681;-92
2022/11/28 03:03:15;;;;;;;0.30;0.30;;;5.30;99.90;;;;;;5028309;28;20196;-92
2022/11/28 03:06:08;;;;;;;0.30;0.30;;;5.30;99.90;;;;;;5028523;28;20441;-92
2022/11/28 03:08:47;;;;;;;0.30;0.30;;;5.20;99.90;;;;;;5023469;28;20195;-92
2022/11/28 03:11:18;;;;;;;0.30;0.30;;;5.20;99.90;;;;;;5021811;28;20494;-93
2022/11/28 03:13:43;;;;;;;0.30;0.30;;;5.10;99.90;;;;;;5025058;28;20604;-92
2022/11/28 03:16:16;;;;;;;0.30;0.30;;;5.20;99.90;;;;;;5025954;28;20914;-92
2022/11/28 03:19:00;;;;;;;0.30;0.30;;;5.10;99.90;;;;;;5025802;28;20242;-93
2022/11/28 03:21:37;;;;;;;0.30;0.30;;;5.10;99.90;;;;;;5025158;28;20529;-92
2022/11/28 03:24:12;;;;;;;0.30;0.30;;;5.10;99.90;;;;;;5027360;28;20543;-92
2022/11/28 03:27:03;;;;;;;0.30;0.30;;;5.10;99.90;;;;;;5026392;28;20689;-92
2022/11/28 03:29:40;;;;;;;0.30;0.30;;;5.10;99.90;;;;;;5026624;28;20504;-93
2022/11/28 03:32:14;;;;;;;0.30;0.30;;;5.10;99.90;;;;;;5027580;28;20493;-92
2022/11/28 03:34:44;;;;;;;0.30;0.30;;;5.10;99.90;;;;;;5027308;28;20456;-92
2022/11/28 03:37:16;;;;;;;0.40;0.40;;;5.10;99.90;;;;;;5028988;28;20485;-93
2022/11/28 03:39:47;;;;;;;0.30;0.30;;;5.10;99.90;;;;;;5029395;28;20476;-92
2022/11/28 03:42:19;;;;;;;0.30;0.30;;;5.10;99.90;;;;;;5004694;28;20462;-93
2022/11/28 03:44:54;;;;;;;0.30;0.30;;;5.10;99.90;;;;;;5009198;28;20545;-92
2022/11/28 03:47:21;;;;;;;0.30;0.30;;;5.20;99.90;;;;;;5029014;28;20453;-93
2022/11/28 03:49:51;;;;;;;0.30;0.30;;;5.20;99.90;;;;;;5027375;28;20445;-93
2022/11/28 03:52:27;;;;;;;0.30;0.30;;;5.20;99.90;;;;;;5026434;28;20446;-94
2022/11/28 03:54:59;;;;;;;0.20;0.20;;;5.30;99.90;;;;;;5024245;28;20913;-90
2022/11/28 03:57:42;;;;;;;0.30;0.30;;;5.30;99.90;;;;;;5028202;28;20953;-93
2022/11/28 04:00:11;;;;;;;0.30;0.30;;;5.30;99.90;;;;;;5022650;28;20446;-93
2022/11/28 04:02:40;;;;;;;0.30;0.30;;;5.30;99.90;;;;;;5025516;28;20536;-93
2022/11/28 04:05:23;;;;;;;0.20;0.20;;;5.30;99.90;;;;;;5026450;28;20462;-93
2022/11/28 04:07:55;;;;;;;0.20;0.20;;;5.20;99.90;;;;;;5027045;28;20571;-92
2022/11/28 04:10:33;;;;;;;0.30;0.30;;;5.20;99.90;;;;;;5025862;28;20455;-94
2022/11/28 04:13:02;;;;;;;0.20;0.20;;;5.30;99.90;;;;;;5025530;28;20477;-94
2022/11/28 04:15:34;;;;;;;0.30;0.30;;;5.30;99.90;;;;;;5025410;28;20453;-93
2022/11/28 04:18:10;;;;;;;0.20;0.20;;;5.30;99.90;;;;;;5027776;28;20826;-93
2022/11/28 04:20:42;;;;;;;0.30;0.30;;;5.30;99.90;;;;;;5026339;28;20446;-94
2022/11/28 04:23:13;;;;;;;0.20;0.20;;;5.30;99.90;;;;;;5014393;28;20583;-93
2022/11/28 04:25:43;;;;;;;0.30;0.30;;;5.30;99.90;;;;;;5027262;28;20493;-93
2022/11/28 04:28:14;;;;;;;0.30;0.30;;;5.30;99.90;;;;;;5019185;28;20438;-94
2022/11/28 04:30:42;;;;;;;0.30;0.30;;;5.30;99.90;;;;;;5010294;28;20442;-93
2022/11/28 04:33:12;;;;;;;0.30;0.30;;;5.20;99.90;;;;;;5025807;28;20447;-92
2022/11/28 04:35:42;;;;;;;0.30;0.30;;;5.20;99.90;;;;;;5029647;28;20498;-93
2022/11/28 04:38:10;;;;;;;0.27;0.27;;;5.20;99.90;;;;;;5019843;28;20478;-94
2022/11/28 04:41:18;;;;;;;0.30;0.30;;;5.20;99.90;;;;;;5031994;28;20454;-94
2022/11/28 04:43:52;;;;;;;0.30;0.30;;;5.20;99.90;;;;;;4998077;28;20455;-93
2022/11/28 04:46:23;;;;;;;0.30;0.30;;;5.20;99.90;;;;;;5027668;28;20523;-93
2022/11/28 04:48:49;;;;;;;0.30;0.30;;;5.20;99.90;;;;;;5036180;28;20422;-93
2022/11/28 04:51:32;;;;;;;0.23;0.23;;;5.30;99.90;;;;;;5030873;28;20465;-93
2022/11/28 04:54:10;;;;;;;0.30;0.30;;;5.20;99.90;;;;;;5012855;28;20243;-93
2022/11/28 04:56:43;;;;;;;0.30;0.30;;;5.20;99.90;;;;;;5028329;28;20465;-94
2022/11/28 04:59:11;;;;;;;0.30;0.30;;;5.30;99.90;;;;;;5018816;28;20474;-93
2022/11/28 05:01:37;;;;;;;0.30;0.30;;;5.30;99.90;;;;;;5028320;28;20452;-92
2022/11/28 05:04:03;;;;;;;0.30;0.30;;;5.30;99.90;;;;;;5032456;28;20525;-93
2022/11/28 05:06:34;;;;;;;0.30;0.30;;;5.30;99.90;;;;;;5028175;28;20577;-93
2022/11/28 05:08:59;;;;;;;0.30;0.30;;;5.20;99.90;;;;;;5007693;28;20195;-93
2022/11/28 05:11:27;;;;;;;0.30;0.30;;;5.20;99.90;;;;;;5023685;28;20446;-91
2022/11/28 05:13:54;;;;;;;0.30;0.30;;;5.20;99.90;;;;;;5026650;28;20656;-92
2022/11/28 05:16:20;;;;;;;0.27;0.27;;;5.20;99.90;;;;;;5023063;28;20530;-92
2022/11/28 05:18:45;;;;;;;0.30;0.30;;;5.20;99.90;;;;;;5027455;28;20478;-93
2022/11/28 05:21:12;;;;;;;0.30;0.30;;;5.20;99.90;;;;;;5027281;28;20432;-93
2022/11/28 05:23:40;;;;;;;0.30;0.30;;;5.30;99.90;;;;;;5023370;28;20179;-92
2022/11/28 05:26:11;;;;;;;0.30;0.30;;;5.30;99.90;;;;;;5029503;28;20597;-93
2022/11/28 05:28:37;;;;;;;0.30;0.30;;;5.30;99.90;;;;;;5022223;28;20472;-93
2022/11/28 05:31:04;;;;;;;0.37;0.37;;;5.30;99.90;;;;;;5007938;28;20450;-92
2022/11/28 05:33:30;;;;;;;0.30;0.30;;;5.30;99.90;;;;;;5014537;28;20188;-93
2022/11/28 05:36:08;;;;;;;0.20;0.20;;;5.30;99.90;;;;;;5018454;28;20450;-94
2022/11/28 05:38:34;;;;;;;0.23;0.23;;;5.40;99.90;;;;;;5026665;28;20485;-93
2022/11/28 05:41:00;;;;;;;0.30;0.30;;;5.40;99.90;;;;;;5023816;28;20446;-94
2022/11/28 05:43:27;;;;;;;0.30;0.30;;;5.40;99.90;;;;;;5026437;28;20454;-93
2022/11/28 05:45:55;;;;;;;0.30;0.30;;;5.40;99.90;;;;;;5029140;28;20438;-91
2022/11/28 05:48:22;;;;;;;0.30;0.30;;;5.40;99.90;;;;;;5012588;28;20480;-93
2022/11/28 05:50:49;;;;;;;0.30;0.30;;;5.50;99.90;;;;;;5027627;28;20473;-94
2022/11/28 05:53:16;;;;;;;0.20;0.20;;;5.40;99.90;;;;;;5030339;28;20454;-94
2022/11/28 05:55:42;;;;;;;0.30;0.30;;;5.40;99.90;;;;;;5028669;28;20438;-93
2022/11/28 05:58:08;;;;;;;0.23;0.23;;;5.50;99.90;;;;;;5028693;28;20495;-94
2022/11/28 06:00:34;;;;;;;0.20;0.20;;;5.50;99.90;;;;;;5032814;28;20186;-94
2022/11/28 06:02:59;;;;;;;0.30;0.30;;;5.40;99.90;;;;;;5024787;28;20441;-94
2022/11/28 06:05:25;;;;;;;0.30;0.30;;;5.50;99.90;;;;;;5026590;28;20267;-93
2022/11/28 06:07:51;;;;;;;0.20;0.20;;;5.50;99.90;;;;;;5030174;28;20194;-94
2022/11/28 06:10:17;;;;;;;0.30;0.30;;;5.40;99.90;;;;;;5028833;28;20207;-93
2022/11/28 06:12:42;;;;;;;0.20;0.20;;;5.40;99.90;;;;;;5027241;28;20227;-94
2022/11/28 06:15:08;;;;;;;0.30;0.30;;;5.50;99.90;;;;;;5032125;28;20438;-94
2022/11/28 06:17:34;;;;;;;0.30;0.30;;;5.40;99.90;;;;;;5028588;28;20671;-94
2022/11/28 06:19:59;;;;;;;0.20;0.20;;;5.50;99.90;;;;;;5028976;28;20532;-93
2022/11/28 06:22:25;;;;;;;0.30;0.30;;;5.50;99.90;;;;;;5011889;28;20203;-94
2022/11/28 06:24:50;;;;;;;0.27;0.27;;;5.50;99.90;;;;;;5030449;28;20192;-92
2022/11/28 06:27:16;;;;;;;0.20;0.20;;;5.50;99.90;;;;;;5028418;28;20194;-93
2022/11/28 06:29:41;;;;;;;0.20;0.20;;;5.50;99.90;;;;;;5032055;28;20263;-92
2022/11/28 06:32:07;;;;;;;0.20;0.20;;;5.50;99.90;;;;;;5034357;28;20215;-93
2022/11/28 06:34:32;;;;;;;0.20;0.20;;;5.50;99.90;;;;;;5012152;28;20187;-94
2022/11/28 06:36:58;;;;;;;0.20;0.20;;;5.50;99.90;;;;;;5010985;28;20208;-93
2022/11/28 06:39:23;;;;;;;0.30;0.30;;;5.50;99.90;;;;;;5026223;28;20705;-91
2022/11/28 06:41:49;;;;;;;0.30;0.30;;;5.50;99.90;;;;;;5024202;28;20201;-94
2022/11/28 06:44:15;;;;;;;0.30;0.30;;;5.50;99.90;;;;;;5028816;28;20215;-92
2022/11/28 06:46:42;;;;;;;0.30;0.30;;;5.50;99.90;;;;;;5027423;28;20184;-93
2022/11/28 06:49:11;;;;;;;0.30;0.30;;;5.50;99.90;;;;;;5030051;28;20442;-93
2022/11/28 06:51:36;;;;;;;0.30;0.30;;;5.50;99.90;;;;;;5032952;28;20438;-93
2022/11/28 06:54:02;;;;;;;0.20;0.20;;;5.50;99.90;;;;;;5032038;28;20941;-93
2022/11/28 06:56:27;;;;;;;0.20;0.20;;;5.50;99.90;;;;;;5030401;28;20548;-92
2022/11/28 06:58:56;;;;;;;0.30;0.30;;;5.50;99.90;;;;;;5030393;28;20283;-92
2022/11/28 07:01:23;;;;;;;0.20;0.20;;;5.50;99.90;;;;;;5027744;28;20214;-93
2022/11/28 07:03:48;;;;;;;0.30;0.30;;;5.40;99.90;;;;;;5030443;28;20437;-91
2022/11/28 07:06:16;;;;;;;0.20;0.20;;;5.40;99.90;;;;;;5035836;28;20529;-92
2022/11/28 07:08:42;;;;;;;0.20;0.20;;;5.40;99.90;;;;;;5033194;28;20222;-92
2022/11/28 07:11:12;;;;;;;0.27;0.27;;;5.50;99.90;;;;;;5031679;28;20460;-93
2022/11/28 07:13:39;;;;;;;0.20;0.20;;;5.40;99.90;;;;;;5031989;28;20477;-93
2022/11/28 07:16:05;;;;;;;0.30;0.30;;;5.40;99.90;;;;;;5025586;28;20438;-94
2022/11/28 07:18:31;;;;;;;0.30;0.30;;;5.40;99.90;;;;;;5032034;28;20481;-93
2022/11/28 07:20:56;;;;;;;0.30;0.30;;;5.40;99.90;;;;;;5026051;28;20466;-93
2022/11/28 07:23:22;;;;;;;0.20;0.20;;;5.40;99.90;;;;;;5034372;28;20271;-92
2022/11/28 07:25:48;;;;;;;0.23;0.23;;;5.40;99.90;;;;;;5022788;28;20663;-95
2022/11/28 07:28:13;;;;;;;0.30;0.30;;;5.40;99.90;;;;;;5034437;28;21027;-93
2022/11/28 07:30:39;;;;;;;0.30;0.30;;;5.40;99.90;;;;;;5024382;28;20183;-95
2022/11/28 07:33:04;;;;;;;0.30;0.30;;;5.40;99.90;;;;;;5013853;28;20198;-94
2022/11/28 07:35:33;;;;;;;0.20;0.20;;;5.40;99.90;;;;;;5033996;28;20575;-93
2022/11/28 07:37:58;;;;;;;0.30;0.30;;;5.40;99.90;;;;;;5026563;28;20568;-89
2022/11/28 07:40:24;;;;;;;0.20;0.20;;;5.40;99.90;;;;;;5029560;28;20473;-93
2022/11/28 07:42:50;;;;;;;0.20;0.20;;;5.30;99.90;;;;;;5034603;28;20195;-94
2022/11/28 07:45:15;;;;;;;0.30;0.30;;;5.30;99.90;;;;;;5031613;28;20179;-93
2022/11/28 07:47:41;;;;;;;0.30;0.30;;;5.30;99.90;;;;;;5007266;28;20224;-90
2022/11/28 07:50:07;;;;;;;0.30;0.30;;;5.40;99.90;;;;;;5038444;28;20211;-94
2022/11/28 07:52:32;;;;;;;0.30;0.30;;;5.40;99.90;;;;;;5109971;23;20270;-93
2022/11/28 07:54:58;;;;;;;0.30;0.30;;;5.40;99.90;;;;;;5029201;28;20511;-95
2022/11/28 07:57:24;;;;;;;0.30;0.30;;;5.40;99.90;;;;;;5026656;28;20257;-93
2022/11/28 07:59:49;;;;;;;0.30;0.30;;;5.40;99.90;;;;;;5006651;28;20200;-93
2022/11/28 08:02:14;;;;;;;0.30;0.30;;;5.40;99.90;;;;;;5003330;28;20206;-92
2022/11/28 08:04:40;;;;;;;0.30;0.30;;;5.40;99.90;;;;;;4997987;28;20214;-92
2022/11/28 08:07:06;;;;;;;0.30;0.30;;;5.40;99.90;;;;;;5017080;28;20649;-94
2022/11/28 08:09:31;;;;;;;0.20;0.20;;;5.40;99.90;;;;;;5008263;28;20235;-93
2022/11/28 08:11:57;;;;;;;0.30;0.30;;;5.40;99.90;;;;;;5021445;28;20248;-94
2022/11/28 08:14:23;;;;;;;0.30;0.30;;;5.40;99.90;;;;;;5012185;28;20192;-93
2022/11/28 08:16:48;;;;;;;0.30;0.30;;;5.40;99.90;;;;;;5008459;28;20451;-92
2022/11/28 08:19:14;;;;;;;0.20;0.20;;;5.40;99.90;;;;;;4996394;28;20216;-89
2022/11/28 08:21:40;;;;;;;0.30;0.30;;;5.50;99.90;;;;;;5001169;28;20211;-88
2022/11/28 08:24:06;;;;;;;0.30;0.30;;;5.50;99.90;;;;;;4997877;28;20241;-87
2022/11/28 08:26:32;;;;;;;0.30;0.30;;;5.50;99.90;;;;;;5007449;28;20583;-88
2022/11/28 08:29:00;;;;;;;0.20;0.20;;;5.50;99.90;;;;;;5005607;28;20932;-89
2022/11/28 08:31:34;;;;;;;0.30;0.30;;;5.50;99.90;;;;;;5009708;28;20791;-86
2022/11/28 08:34:03;;;;;;;0.30;0.30;;;5.50;99.90;;;;;;5003865;28;20511;-86
2022/11/28 08:36:28;;;;;;;0.30;0.30;;;5.50;99.90;;;;;;5004303;28;20467;-87
2022/11/28 08:38:54;;;;;;;0.30;0.30;;;5.50;99.90;;;;;;5002015;28;20529;-86
2022/11/28 08:41:22;;;;;;;0.27;0.27;;;5.50;99.90;;;;;;5001506;28;20228;-85
2022/11/28 08:43:48;;;;;;;0.27;0.27;;;5.50;99.90;;;;;;5008620;28;20602;-92
2022/11/28 08:46:19;;;;;;;0.30;0.30;;;5.50;99.90;;;;;;5006895;28;20467;-92
2022/11/28 08:48:47;;;;;;;0.27;0.27;;;5.50;99.90;;;;;;5010323;28;20177;-88
2022/11/28 08:51:19;;;;;;;0.20;0.20;;;5.50;99.90;;;;;;5004442;28;20449;-86
2022/11/28 08:53:45;;;;;;;0.30;0.30;;;5.50;99.90;;;;;;4996222;28;20483;-89
2022/11/28 08:56:12;;;;;;;0.30;0.30;;;5.50;99.90;;;;;;4994613;28;20475;-94
2022/11/28 08:58:38;;;;;;;0.20;0.20;;;5.50;99.90;;;;;;5011885;28;20515;-94
2022/11/28 09:01:03;;;;;;;0.30;0.30;;;5.50;99.90;;;;;;5005377;28;20442;-95
2022/11/28 09:03:29;;;;;;;0.20;0.20;;;5.50;99.90;;;;;;5019199;28;20451;-92
2022/11/28 09:06:00;;;;;;;0.20;0.20;;;5.50;99.90;;;;;;5006126;28;20184;-93
2022/11/28 09:08:26;;;;;;;0.30;0.30;;;5.50;99.90;;;;;;5012740;28;20180;-94
2022/11/28 09:10:51;;;;;;;0.30;0.30;;;5.60;99.90;;;;;;5015265;28;20440;-95
2022/11/28 09:13:17;;;;;;;0.30;0.30;;;5.60;99.90;;;;;;5000124;28;20193;-93
2022/11/28 09:15:45;;;;;;;0.20;0.20;;;5.60;99.90;;;;;;5002171;28;20191;-94
2022/11/28 09:18:12;;;;;;;0.17;0.17;;;5.60;99.90;;;;;;5013677;28;20920;-95
2022/11/28 09:20:38;;;;;;;0.20;0.20;;;5.60;99.90;;;;;;5006786;28;20505;-93
2022/11/28 09:23:04;;;;;;;0.30;0.30;;;5.70;99.90;;;;;;5012903;28;20843;-93
2022/11/28 09:25:29;;;;;;;0.30;0.30;;;5.70;99.90;;;;;;5011050;28;20656;-95
2022/11/28 09:27:55;;;;;;;0.20;0.20;;;5.70;99.90;;;;;;5012045;28;20194;-92
2022/11/28 09:30:21;;;;;;;0.20;0.20;;;5.70;99.90;;;;;;5028094;28;20202;-93
2022/11/28 09:32:48;;;;;;;0.20;0.20;;;5.70;99.90;;;;;;5013471;28;20169;-93
2022/11/28 09:35:14;;;;;;;0.30;0.30;;;5.70;99.90;;;;;;5011920;28;20481;-92
2022/11/28 09:37:39;;;;;;;0.30;0.30;;;5.70;99.90;;;;;;4993680;28;21218;-93
2022/11/28 09:40:06;;;;;;;0.30;0.30;;;5.70;99.90;;;;;;5007615;28;20218;-93
2022/11/28 09:42:40;;;;;;;0.30;0.30;;;5.70;99.90;;;;;;5013577;28;20188;-93
2022/11/28 09:45:16;;;;;;;0.30;0.30;;;5.70;99.90;;;;;;5006840;28;21018;-93
2022/11/28 09:47:52;;;;;;;0.30;0.30;;;5.70;99.90;;;;;;5005515;28;20430;-93
2022/11/28 09:50:22;;;;;;;0.30;0.30;;;5.70;99.90;;;;;;5005682;28;20455;-93
2022/11/28 09:53:08;;;;;;;0.30;0.30;;;5.70;99.90;;;;;;4989284;28;20753;-92
2022/11/28 09:55:38;;;;;;;0.30;0.30;;;5.70;99.90;;;;;;4994906;28;20543;-93
2022/11/28 09:58:27;;;;;;;0.30;0.30;;;5.70;99.90;;;;;;4992016;28;20858;-92
2022/11/28 10:01:04;;;;;;;0.30;0.30;;;5.70;99.90;;;;;;4916159;29;20499;-93
2022/11/28 10:03:38;;;;;;;0.20;0.20;;;5.70;99.90;;;;;;4933585;29;21186;-93
2022/11/28 10:06:17;;;;;;;0.20;0.20;;;5.70;99.90;;;;;;4932032;29;20475;-93
2022/11/28 10:09:15;;;;;;;0.20;0.20;;;5.60;99.90;;;;;;4933565;29;20451;-92
2022/11/28 10:12:11;;;;;;;0.30;0.30;;;5.60;99.90;;;;;;4970977;28;20475;-92
2022/11/28 10:14:58;;;;;;;0.30;0.30;;;5.60;99.90;;;;;;4929556;28;20962;-91
2022/11/28 10:18:22;;;;;;;0.20;0.20;;;5.60;99.90;;;;;;4967416;28;20442;-93
2022/11/28 10:20:53;;;;;;;0.20;0.20;;;5.60;99.90;;;;;;4949827;28;20446;-91
2022/11/28 10:23:25;;;;;;;0.20;0.20;;;5.70;99.90;;;;;;4960312;28;20451;-93
2022/11/28 10:26:03;;;;;;;0.20;0.20;;;5.70;99.90;;;;;;5002490;28;20807;-93
2022/11/28 10:28:33;;;;;;;0.20;0.20;;;5.60;99.90;;;;;;4925099;28;20451;-95
2022/11/28 10:31:12;;;;;;;0.30;0.30;;;5.60;99.90;;;;;;5003244;28;20531;-93
2022/11/28 10:33:59;;;;;;;0.30;0.30;;;5.60;99.90;;;;;;4929283;28;20514;-91
2022/11/28 10:36:32;;;;;;;0.30;0.30;;;5.60;99.90;;;;;;4983469;28;20480;-93
2022/11/28 10:39:01;;;;;;;0.30;0.30;;;5.70;99.90;;;;;;4929711;28;20575;-94
2022/11/28 10:41:37;;;;;;;0.30;0.30;;;5.60;99.90;;;;;;4992039;28;20443;-91
2022/11/28 10:44:17;;;;;;;0.27;0.27;;;5.60;99.90;;;;;;4989427;28;20459;-93
2022/11/28 10:47:10;;;;;;;0.20;0.20;;;5.60;99.90;;;;;;4923352;29;20571;-92
2022/11/28 10:49:59;;;;;;;0.20;0.20;;;5.60;99.90;;;;;;5013968;28;20447;-93
2022/11/28 10:52:51;;;;;;;0.30;0.30;;;5.70;99.90;;;;;;5007693;28;20443;-92
2022/11/28 10:55:19;;;;;;;0.30;0.30;;;5.60;99.90;;;;;;4930821;28;20485;-91
2022/11/28 10:58:14;;;;;;;0.20;0.20;;;5.60;99.90;;;;;;4936140;28;20558;-92
2022/11/28 11:00:44;;;;;;;0.30;0.30;;;5.70;99.90;;;;;;4924342;29;21136;-94
2022/11/28 11:03:12;;;;;;;0.30;0.30;;;5.70;99.90;;;;;;4919549;29;20515;-93
2022/11/28 11:05:38;;;;;;;0.23;0.23;;;5.70;99.90;;;;;;4991234;28;20460;-93
2022/11/28 11:08:09;;;;;;;0.20;0.20;;;5.70;99.90;;;;;;4933960;28;20467;-91
2022/11/28 11:10:49;;;;;;;0.30;0.30;;;5.70;99.90;;;;;;4931043;28;20183;-87
2022/11/28 11:13:19;;;;;;;0.20;0.20;;;5.70;99.90;;;;;;4933389;28;20470;-88
2022/11/28 11:15:47;;;;;;;0.30;0.30;;;5.60;99.90;;;;;;4925589;28;20892;-87
2022/11/28 11:18:35;;;;;;;0.20;0.20;;;5.60;99.90;;;;;;4931550;28;20471;-89
2022/11/28 11:21:25;;;;;;;0.30;0.30;;;5.60;99.90;;;;;;5000482;28;20537;-88
2022/11/28 11:24:14;;;;;;;0.23;0.23;;;5.60;99.90;;;;;;4926202;28;20834;-91
2022/11/28 11:26:44;;;;;;;0.20;0.20;;;5.60;99.90;;;;;;4956215;28;20988;-89
2022/11/28 11:29:31;;;;;;;0.20;0.20;;;5.60;99.90;;;;;;5008061;28;20471;-88
2022/11/28 11:32:02;;;;;;;0.30;0.30;;;5.60;99.90;;;;;;4927876;28;20441;-88
2022/11/28 11:34:43;;;;;;;0.27;0.27;;;5.60;99.90;;;;;;4939278;28;20447;-90
2022/11/28 11:37:30;;;;;;;0.30;0.30;;;5.60;99.90;;;;;;4994748;28;20439;-90
2022/11/28 11:39:55;;;;;;;0.30;0.30;;;5.50;99.90;;;;;;4929144;28;20455;-92
2022/11/28 11:42:31;;;;;;;0.20;0.20;;;5.50;99.90;;;;;;4994190;28;20796;-88
2022/11/28 11:45:26;;;;;;;0.30;0.30;;;5.50;99.90;;;;;;4987289;28;20188;-88
2022/11/28 11:47:51;;;;;;;0.20;0.20;;;5.60;99.90;;;;;;4957871;28;20447;-88
2022/11/28 11:50:20;;;;;;;0.20;0.20;;;5.60;99.90;;;;;;4945318;28;20470;-89
2022/11/28 11:53:09;;;;;;;0.30;0.30;;;5.60;99.90;;;;;;4933548;28;20235;-90
2022/11/28 11:55:47;;;;;;;0.30;0.30;;;5.60;99.90;;;;;;4910319;29;20632;-92
2022/11/28 11:58:18;;;;;;;0.20;0.20;;;5.60;99.90;;;;;;4927560;28;20483;-88
2022/11/28 12:00:45;;;;;;;0.30;0.30;;;5.60;99.90;;;;;;4990024;28;20440;-87
2022/11/28 12:03:24;;;;;;;0.30;0.30;;;5.50;99.90;;;;;;4931819;28;20577;-87
2022/11/28 12:05:55;;;;;;;0.27;0.27;;;5.60;99.90;;;;;;4943466;28;20818;-88
2022/11/28 12:08:30;;;;;;;0.30;0.30;;;5.60;99.90;;;;;;4929591;28;20458;-88
2022/11/28 12:11:17;;;;;;;0.30;0.30;;;5.60;99.90;;;;;;4932961;28;20446;-88
2022/11/28 12:13:43;;;;;;;0.20;0.20;;;5.60;99.90;;;;;;4966236;28;20454;-88
2022/11/28 12:16:39;;;;;;;0.20;0.20;;;5.50;99.90;;;;;;4977319;28;20449;-88
2022/11/28 12:19:11;;;;;;;0.20;0.20;;;5.60;99.90;;;;;;4924938;28;20572;-89
2022/11/28 12:22:11;;;;;;;0.20;0.20;;;5.60;99.90;;;;;;4948093;28;20455;-88
2022/11/28 12:24:48;;;;;;;0.20;0.20;;;5.60;99.90;;;;;;4991269;28;20705;-86
2022/11/28 12:27:26;;;;;;;0.30;0.30;;;5.60;99.90;;;;;;4987156;28;20441;-88
2022/11/28 12:30:12;;;;;;;0.27;0.27;;;5.50;99.90;;;;;;4943711;28;20459;-88
2022/11/28 12:32:56;;;;;;;0.23;0.23;;;5.50;99.90;;;;;;4978434;28;20487;-88
2022/11/28 12:35:36;;;;;;;0.30;0.30;;;5.50;99.90;;;;;;4918023;29;20501;-88
2022/11/28 12:38:30;;;;;;;0.20;0.20;;;5.40;99.90;;;;;;4941963;28;20486;-87
2022/11/28 12:41:20;;;;;;;0.30;0.30;;;5.40;99.90;;;;;;4931407;29;20438;-87
2022/11/28 12:44:13;;;;;;;0.30;0.30;;;5.30;99.90;;;;;;4952361;28;21003;-90
2022/11/28 12:46:44;;;;;;;0.30;0.30;;;5.30;99.90;;;;;;4992773;28;20461;-90
2022/11/28 12:49:10;;;;;;;0.37;0.37;;;5.30;99.90;;;;;;4994343;28;20435;-90
2022/11/28 12:52:11;;;;;;;0.30;0.30;;;5.30;99.90;;;;;;4930216;28;20505;-90
2022/11/28 12:55:03;;;;;;;0.30;0.30;;;5.30;99.90;;;;;;4929080;28;20570;-88
2022/11/28 12:57:45;;;;;;;0.30;0.30;;;5.30;99.90;;;;;;4929682;28;20950;-89
2022/11/28 13:00:23;;;;;;;0.30;0.30;;;5.30;99.90;;;;;;4931591;29;20450;-90
2022/11/28 13:03:04;;;;;;;0.30;0.30;;;5.30;99.90;;;;;;4945762;28;20442;-91
2022/11/28 13:05:36;;;;;;;0.30;0.30;;;5.20;99.90;;;;;;4966285;28;20463;-90
2022/11/28 13:08:21;;;;;;;0.30;0.30;;;5.20;99.90;;;;;;4931144;28;20467;-90
2022/11/28 13:10:53;;;;;;;0.20;0.20;;;5.20;99.90;;;;;;4944684;28;20479;-90
2022/11/28 13:13:31;;;;;;;0.30;0.30;;;5.10;99.90;;;;;;4931377;28;20455;-89
2022/11/28 13:16:29;;;;;;;0.30;0.30;;;5.00;99.90;;;;;;4924664;28;20464;-92
2022/11/28 13:19:20;;;;;;;0.30;0.30;;;5.00;99.90;;;;;;4926295;28;20491;-92
2022/11/28 13:21:53;;;;;;;0.30;0.30;;;4.90;99.90;;;;;;4992585;28;20523;-91
2022/11/28 13:24:33;;;;;;;0.40;0.40;;;4.80;99.90;;;;;;4989339;28;20481;-92